Time;durP1;ratioP1;P1;durP2;ratioP2;P2;SDS_P1;SDS_P2;PMS_P1;PMS_P2;Temp;Humidity;BMP_temperature;BMP_pressure;BME280_temperature;BME280_humidity;BME280_pressure;Samples;Min_cycle;Max_cycle;Signal;HPM_P1;HPM_P2
2023/05/02 00:00:12;;;;;;;7.00;3.42;;;;;;;13.36;76.81;64357.53;5050783;28;20633;-59
2023/05/02 00:02:37;;;;;;;4.63;3.00;;;;;;;13.35;77.44;64356.41;5050743;28;20635;-57
2023/05/02 00:05:04;;;;;;;3.75;3.40;;;;;;;13.25;77.73;64347.97;5050570;28;20217;-57
2023/05/02 00:07:29;;;;;;;6.97;3.15;;;;;;;13.30;77.23;64353.47;5050659;28;20255;-57
2023/05/02 00:09:55;;;;;;;3.53;2.95;;;;;;;13.31;76.73;64354.00;5032846;28;20243;-57
2023/05/02 00:12:20;;;;;;;3.30;2.75;;;;;;;13.31;76.96;64352.00;5050592;28;20189;-57
2023/05/02 00:14:45;;;;;;;5.07;3.30;;;;;;;13.30;77.61;64350.38;5032641;28;20225;-58
2023/05/02 00:17:18;;;;;;;3.50;3.20;;;;;;;13.27;77.20;64350.16;5050776;28;20193;-56
2023/05/02 00:19:43;;;;;;;7.43;3.00;;;;;;;13.09;77.58;64332.41;5050280;28;20249;-57
2023/05/02 00:22:09;;;;;;;4.28;3.45;;;;;;;12.91;78.59;64310.09;5050689;28;20224;-60
2023/05/02 00:24:34;;;;;;;3.15;2.85;;;;;;;12.86;79.20;64304.59;5053601;28;20236;-59
2023/05/02 00:27:00;;;;;;;5.75;3.22;;;;;;;12.87;79.03;64306.25;5054204;28;20181;-59
2023/05/02 00:29:26;;;;;;;3.15;2.85;;;;;;;12.88;79.19;64304.81;5054117;28;20308;-59
2023/05/02 00:31:51;;;;;;;4.30;2.90;;;;;;;12.78;79.76;64296.38;5053997;28;20657;-58
2023/05/02 00:34:17;;;;;;;5.07;3.45;;;;;;;12.76;80.79;64291.66;5053804;28;20206;-56
2023/05/02 00:36:42;;;;;;;4.25;3.85;;;;;;;12.77;80.72;64292.75;5054187;28;20221;-58
2023/05/02 00:39:08;;;;;;;4.40;3.30;;;;;;;12.77;80.63;64297.81;5035777;28;20206;-59
2023/05/02 00:41:34;;;;;;;4.60;3.50;;;;;;;12.77;81.00;64292.19;5054048;28;20190;-56
2023/05/02 00:43:59;;;;;;;4.50;3.25;;;;;;;12.75;80.80;64290.56;5053472;28;20760;-57
2023/05/02 00:46:25;;;;;;;4.45;3.50;;;;;;;12.73;81.34;64287.81;5053763;28;20190;-55
2023/05/02 00:48:52;;;;;;;7.18;3.78;;;;;;;12.74;81.21;64292.00;5053457;28;20244;-55
2023/05/02 00:51:18;;;;;;;3.77;3.10;;;;;;;12.57;82.32;64273.34;5053693;28;20225;-57
2023/05/02 00:53:44;;;;;;;5.40;3.53;;;;;;;12.57;82.79;64273.88;5035598;28;20676;-55
2023/05/02 00:56:10;;;;;;;4.27;3.87;;;;;;;12.56;83.04;64269.72;5053582;28;20197;-55
2023/05/02 00:58:37;;;;;;;4.50;3.03;;;;;;;12.56;83.71;64269.72;5053445;28;20198;-58
2023/05/02 01:01:14;;;;;;;4.27;3.70;;;;;;;12.59;84.00;64276.09;5053497;28;20272;-57
2023/05/02 01:03:55;;;;;;;4.00;3.33;;;;;;;12.60;84.48;64274.13;5053707;28;20683;-57
2023/05/02 01:06:30;;;;;;;5.18;3.53;;;;;;;12.50;84.85;64263.69;5035862;28;20205;-56
2023/05/02 01:09:08;;;;;;;4.17;3.87;;;;;;;12.47;84.90;64262.38;5053485;28;20219;-58
2023/05/02 01:11:47;;;;;;;3.90;3.23;;;;;;;12.40;85.70;64254.72;5035577;28;20267;-57
2023/05/02 01:14:14;;;;;;;3.90;3.25;;;;;;;12.40;85.98;64252.19;5035345;28;20559;-57
2023/05/02 01:16:42;;;;;;;4.47;3.58;;;;;;;12.45;85.13;64260.19;5053406;28;20189;-56
2023/05/02 01:19:23;;;;;;;3.50;3.10;;;;;;;12.51;85.19;64264.22;5053298;28;20308;-56
2023/05/02 01:21:52;;;;;;;4.87;3.53;;;;;;;12.40;85.85;64254.72;5053449;28;20276;-57
2023/05/02 01:24:31;;;;;;;3.83;3.53;;;;;;;12.26;86.95;64241.88;5052876;28;20212;-57
2023/05/02 01:27:21;;;;;;;4.10;3.70;;;;;;;12.29;87.16;64240.66;5053312;28;20200;-60
2023/05/02 01:29:50;;;;;;;4.90;3.50;;;;;;;12.29;87.09;64240.09;5053019;28;20231;-57
2023/05/02 01:32:19;;;;;;;4.70;3.30;;;;;;;12.24;88.03;64235.16;5053133;28;20273;-60
2023/05/02 01:34:46;;;;;;;4.00;3.13;;;;;;;12.33;87.53;64247.03;5034992;28;20627;-56
2023/05/02 01:37:13;;;;;;;3.57;3.27;;;;;;;12.54;86.34;64267.53;5053041;28;20271;-56
2023/05/02 01:39:40;;;;;;;4.40;3.73;;;;;;;12.49;86.69;64264.56;5052715;28;20683;-56
2023/05/02 01:42:05;;;;;;;5.28;3.20;;;;;;;12.73;85.87;64285.84;5052604;28;20259;-60
2023/05/02 01:44:33;;;;;;;5.22;3.85;;;;;;;12.61;85.76;64275.75;5052512;28;20687;-59
2023/05/02 01:47:01;;;;;;;3.87;3.47;;;;;;;12.72;85.84;64291.78;5053011;28;20204;-60
2023/05/02 01:49:30;;;;;;;6.75;3.50;;;;;;;12.87;84.89;64305.69;5052576;28;20244;-62
2023/05/02 01:52:02;;;;;;;4.17;3.77;;;;;;;12.75;84.50;64295.06;5053071;28;20569;-56
2023/05/02 01:54:28;;;;;;;4.57;3.20;;;;;;;12.59;86.30;64275.53;5052771;28;20687;-55
2023/05/02 01:56:55;;;;;;;6.10;3.90;;;;;;;12.50;87.42;64263.16;5052811;28;20655;-60
2023/05/02 01:59:22;;;;;;;4.00;3.47;;;;;;;12.47;86.63;64262.94;5052531;28;20209;-56
2023/05/02 02:01:50;;;;;;;5.13;4.63;;;;;;;12.54;86.62;64270.06;5052702;28;20276;-56
2023/05/02 02:04:18;;;;;;;5.67;3.40;;;;;;;12.55;87.09;64268.63;5052444;28;20221;-57
2023/05/02 02:06:47;;;;;;;3.97;3.57;;;;;;;12.31;88.77;64242.31;5052270;28;20259;-57
2023/05/02 02:09:13;;;;;;;4.33;3.47;;;;;;;12.32;88.49;64246.47;5052460;28;20202;-57
2023/05/02 02:11:51;;;;;;;5.50;4.17;;;;;;;12.14;89.34;64226.72;5052772;28;20197;-56
2023/05/02 02:14:23;;;;;;;4.07;3.67;;;;;;;12.12;89.86;64221.47;5052332;28;20213;-57
2023/05/02 02:16:52;;;;;;;3.83;3.53;;;;;;;12.14;89.97;64226.19;5052810;28;20198;-56
2023/05/02 02:19:18;;;;;;;4.57;3.80;;;;;;;12.06;90.05;64214.91;5052211;28;20356;-56
2023/05/02 02:21:46;;;;;;;4.30;3.60;;;;;;;12.05;90.85;64213.78;5052350;28;20198;-59
2023/05/02 02:24:12;;;;;;;4.40;3.30;;;;;;;12.13;90.74;64222.56;5052141;28;20220;-56
2023/05/02 02:26:38;;;;;;;6.80;4.10;;;;;;;12.06;90.24;64219.94;5034161;28;20201;-56
2023/05/02 02:29:04;;;;;;;5.43;4.03;;;;;;;12.15;91.07;64224.75;5052118;28;20209;-57
2023/05/02 02:31:31;;;;;;;5.13;4.00;;;;;;;12.13;90.43;64225.09;5052271;28;20201;-56
2023/05/02 02:33:56;;;;;;;7.63;4.43;;;;;;;12.03;90.33;64214.13;5051887;28;20209;-56
2023/05/02 02:36:35;;;;;;;7.23;4.33;;;;;;;12.06;90.18;64214.91;5052191;28;20198;-57
2023/05/02 02:39:03;;;;;;;5.43;3.77;;;;;;;12.11;90.03;64222.91;5051876;28;20224;-57
2023/05/02 02:42:01;;;;;;;5.30;3.77;;;;;;;12.02;90.72;64213.03;5052103;28;20255;-56
2023/05/02 02:45:10;;;;;;;4.43;4.03;;;;;;;11.93;91.38;64200.63;5018220;28;20290;-57
2023/05/02 02:47:43;;;;;;;5.27;4.60;;;;;;;12.01;90.35;64209.41;4970695;28;20695;-57
2023/05/02 02:50:50;;;;;;;6.93;4.30;;;;;;;11.94;91.44;64204.28;5043571;28;20577;-58
2023/05/02 02:53:24;;;;;;;8.87;4.60;;;;;;;11.94;90.07;64204.28;5030631;28;20257;-56
2023/05/02 02:56:04;;;;;;;4.57;3.87;;;;;;;11.84;92.64;64190.78;5051597;28;20267;-61
2023/05/02 02:58:59;;;;;;;7.50;4.27;;;;;;;11.86;92.24;64191.00;5051494;28;20205;-58
2023/05/02 03:01:26;;;;;;;4.77;3.93;;;;;;;11.79;90.99;64188.38;5051452;28;20664;-57
2023/05/02 03:03:53;;;;;;;6.33;4.30;;;;;;;11.73;92.65;64182.34;5051470;28;20209;-58
2023/05/02 03:06:19;;;;;;;8.23;6.60;;;;;;;11.67;92.07;64175.78;5051478;28;20209;-56
2023/05/02 03:08:45;;;;;;;5.77;4.43;;;;;;;11.70;92.15;64176.53;5033467;28;20251;-55
2023/05/02 03:11:10;;;;;;;6.97;4.90;;;;;;;11.74;93.10;64180.38;5051450;28;20228;-58
2023/05/02 03:13:36;;;;;;;7.30;4.33;;;;;;;11.73;93.10;64182.34;5051168;28;20582;-59
2023/05/02 03:16:29;;;;;;;8.10;5.10;;;;;;;11.60;93.10;64168.06;5051452;28;20232;-57
2023/05/02 03:18:55;;;;;;;5.77;4.30;;;;;;;11.68;92.40;64174.34;5051089;28;20262;-57
2023/05/02 03:21:20;;;;;;;6.27;4.50;;;;;;;11.73;92.94;64181.81;5051367;28;20302;-60
2023/05/02 03:23:46;;;;;;;5.13;4.63;;;;;;;11.69;92.73;64175.44;5051142;28;20212;-59
2023/05/02 03:26:11;;;;;;;6.17;4.20;;;;;;;11.65;93.71;64173.56;5051206;28;20213;-56
2023/05/02 03:28:37;;;;;;;7.13;5.80;;;;;;;11.52;93.25;64156.78;5033121;28;20212;-57
2023/05/02 03:31:02;;;;;;;8.10;5.23;;;;;;;11.71;93.48;64180.16;5033357;28;20280;-59
2023/05/02 03:33:27;;;;;;;5.67;4.20;;;;;;;11.76;92.54;64182.56;5051150;28;20295;-59
2023/05/02 03:35:53;;;;;;;6.43;4.23;;;;;;;11.69;92.90;64174.91;5050859;28;20197;-58
2023/05/02 03:38:18;;;;;;;5.20;4.50;;;;;;;11.67;93.17;64170.72;5050920;28;20201;-58
2023/05/02 03:40:44;;;;;;;5.90;4.30;;;;;;;11.68;92.72;64173.78;5050977;28;20552;-59
2023/05/02 03:43:10;;;;;;;5.17;4.47;;;;;;;11.58;93.83;64165.34;5051034;28;20300;-57
2023/05/02 03:45:35;;;;;;;4.93;4.20;;;;;;;11.58;93.04;64165.34;5050722;28;20205;-58
2023/05/02 03:48:01;;;;;;;4.63;4.20;;;;;;;11.52;93.22;64156.78;5051006;28;20229;-59
2023/05/02 03:50:27;;;;;;;4.33;3.93;;;;;;;11.43;93.98;64148.91;5050880;28;20189;-57
2023/05/02 03:52:53;;;;;;;5.20;4.30;;;;;;;11.41;94.54;64146.72;5050622;28;20195;-57
2023/05/02 03:55:18;;;;;;;8.97;4.70;;;;;;;11.61;93.39;64169.19;5032728;28;20185;-57
2023/05/02 03:57:44;;;;;;;5.60;3.93;;;;;;;11.64;93.21;64171.91;5049464;28;20284;-55
2023/05/02 04:00:10;;;;;;;6.73;4.37;;;;;;;11.90;92.85;64199.88;5032769;28;20186;-56
2023/05/02 04:02:35;;;;;;;7.10;4.53;;;;;;;11.94;91.46;64202.28;5051018;28;20200;-56
2023/05/02 04:05:01;;;;;;;6.23;4.70;;;;;;;12.16;90.38;64228.94;5050706;28;20213;-59
2023/05/02 04:07:27;;;;;;;5.13;4.47;;;;;;;12.33;90.09;64247.56;5050901;28;20189;-56
2023/05/02 04:09:52;;;;;;;6.73;4.80;;;;;;;12.42;89.09;64254.38;5050258;28;20695;-55
2023/05/02 04:12:19;;;;;;;8.03;4.93;;;;;;;12.42;89.74;64257.44;5050919;28;20231;-57
2023/05/02 04:14:44;;;;;;;6.07;4.77;;;;;;;12.47;88.66;64262.38;5050742;28;20221;-57
2023/05/02 04:17:10;;;;;;;7.27;4.53;;;;;;;12.53;87.46;64266.97;5050402;28;20764;-61
2023/05/02 04:19:35;;;;;;;4.90;4.10;;;;;;;12.63;87.21;64279.91;5050501;28;20205;-57
2023/05/02 04:22:08;;;;;;;4.50;4.10;;;;;;;12.58;87.40;64274.44;5050495;28;20190;-58
2023/05/02 04:24:34;;;;;;;9.00;4.40;;;;;;;12.60;86.64;64276.63;5050452;28;20252;-60
2023/05/02 04:27:00;;;;;;;5.83;4.70;;;;;;;12.52;87.37;64267.88;5050340;28;20235;-56
2023/05/02 04:29:25;;;;;;;4.77;4.20;;;;;;;12.57;87.61;64271.38;5032621;28;20347;-60
2023/05/02 04:31:51;;;;;;;5.17;4.33;;;;;;;12.43;88.00;64257.97;5050669;28;20254;-61
2023/05/02 04:34:16;;;;;;;7.57;4.80;;;;;;;12.45;87.26;64260.19;5050371;28;20208;-56
2023/05/02 04:36:44;;;;;;;14.53;3.90;;;;;;;12.29;87.46;64242.63;5050151;28;20224;-58
2023/05/02 04:39:16;;;;;;;6.70;4.47;;;;;;;12.22;86.67;64232.97;5032442;28;20576;-58
2023/05/02 04:41:42;;;;;;;7.60;4.23;;;;;;;12.12;86.84;64221.47;5050230;28;20202;-56
2023/05/02 04:44:07;;;;;;;6.40;4.80;;;;;;;12.10;86.77;64219.28;5049963;28;20296;-58
2023/05/02 04:46:33;;;;;;;5.40;3.93;;;;;;;12.09;87.71;64220.72;5050358;28;20217;-59
2023/05/02 04:48:58;;;;;;;5.70;4.20;;;;;;;11.98;87.80;64208.66;5050167;28;20220;-58
2023/05/02 04:51:24;;;;;;;7.53;4.60;;;;;;;12.11;87.80;64220.38;5032203;28;20656;-64
2023/05/02 04:53:49;;;;;;;4.77;4.17;;;;;;;12.13;87.34;64225.09;5049947;28;20263;-60
2023/05/02 04:56:15;;;;;;;7.27;4.77;;;;;;;12.06;87.39;64217.97;5049934;28;20201;-60
2023/05/02 04:58:40;;;;;;;4.40;3.97;;;;;;;12.02;86.48;64213.56;5050134;28;20594;-57
2023/05/02 05:01:06;;;;;;;7.40;4.57;;;;;;;12.02;86.36;64211.06;5032412;28;20194;-57
2023/05/02 05:03:32;;;;;;;4.50;4.03;;;;;;;12.18;86.12;64230.59;5032158;28;20202;-57
2023/05/02 05:05:57;;;;;;;4.73;4.33;;;;;;;12.17;85.97;64226.94;5049769;28;20765;-56
2023/05/02 05:08:23;;;;;;;6.53;3.67;;;;;;;12.14;84.53;64221.16;5049956;28;20249;-56
2023/05/02 05:10:49;;;;;;;4.13;3.50;;;;;;;12.22;83.30;64232.97;5053311;28;20527;-59
2023/05/02 05:13:14;;;;;;;8.70;3.97;;;;;;;12.28;81.68;64239.03;5053391;28;20267;-59
2023/05/02 05:15:40;;;;;;;7.03;4.10;;;;;;;12.28;82.29;64239.03;5053389;28;20244;-56
2023/05/02 05:18:05;;;;;;;4.27;3.87;;;;;;;12.26;82.40;64239.34;5053366;28;20213;-59
2023/05/02 05:20:32;;;;;;;4.70;3.80;;;;;;;12.36;81.96;64247.78;5035428;28;20670;-57
2023/05/02 05:22:58;;;;;;;5.83;3.87;;;;;;;12.40;81.10;64252.72;5053126;28;20718;-57
2023/05/02 05:25:26;;;;;;;6.47;4.73;;;;;;;12.48;80.37;64263.47;5053293;28;20217;-61
2023/05/02 05:27:52;;;;;;;4.33;3.93;;;;;;;12.47;80.66;64259.84;5053234;28;20280;-57
2023/05/02 05:30:17;;;;;;;5.17;3.90;;;;;;;12.54;79.33;64265.00;5052958;28;20261;-57
2023/05/02 05:32:43;;;;;;;5.50;3.60;;;;;;;12.56;79.12;64272.25;5053305;28;20190;-57
2023/05/02 05:35:09;;;;;;;5.20;3.90;;;;;;;12.59;79.60;64273.56;5053159;28;20189;-60
2023/05/02 05:37:36;;;;;;;5.90;3.63;;;;;;;12.68;80.06;64287.38;5053261;28;20189;-60
2023/05/02 05:40:01;;;;;;;4.93;4.10;;;;;;;12.73;78.36;64287.81;5053015;28;20692;-58
2023/05/02 05:42:27;;;;;;;5.97;3.87;;;;;;;12.82;78.72;64297.69;5053111;28;20297;-59
2023/05/02 05:44:52;;;;;;;8.87;4.13;;;;;;;12.87;78.29;64303.72;5052706;28;20631;-58
2023/05/02 05:47:21;;;;;;;6.87;3.70;;;;;;;12.88;77.75;64304.81;5052917;28;20189;-56
2023/05/02 05:49:46;;;;;;;7.57;3.80;;;;;;;12.86;77.87;64304.59;5052765;28;20209;-56
2023/05/02 05:52:12;;;;;;;6.90;3.93;;;;;;;12.93;77.05;64312.81;5052609;28;20575;-58
2023/05/02 05:54:37;;;;;;;5.43;3.83;;;;;;;13.07;77.17;64328.22;5034716;28;20205;-57
2023/05/02 05:57:02;;;;;;;6.30;3.87;;;;;;;13.12;75.32;64331.19;5053204;28;20268;-57
2023/05/02 05:59:28;;;;;;;7.03;3.70;;;;;;;13.27;76.08;64349.63;5052530;28;20205;-59
2023/05/02 06:01:53;;;;;;;11.33;5.03;;;;;;;13.26;75.54;64349.06;5052983;28;20198;-57
2023/05/02 06:04:18;;;;;;;8.40;5.13;;;;;;;13.42;74.94;64364.09;5052401;28;20193;-57
2023/05/02 06:06:44;;;;;;;4.30;3.33;;;;;;;13.40;74.24;64361.91;5052689;28;20251;-57
2023/05/02 06:09:10;;;;;;;5.17;4.10;;;;;;;13.33;74.60;64354.22;5052428;28;20217;-57
2023/05/02 06:11:37;;;;;;;5.53;4.97;;;;;;;13.30;73.88;64350.94;5052589;28;20190;-57
2023/05/02 06:14:02;;;;;;;5.35;3.58;;;;;;;13.40;73.28;64364.44;5034434;28;20213;-56
2023/05/02 06:16:28;;;;;;;7.97;3.87;;;;;;;13.42;73.47;64366.63;5052290;28;20193;-57
2023/05/02 06:18:53;;;;;;;4.47;3.53;;;;;;;13.33;73.11;64354.22;5052699;28;20225;-56
2023/05/02 06:21:18;;;;;;;6.97;3.40;;;;;;;13.36;73.61;64360.03;5051756;28;20273;-59
2023/05/02 06:23:44;;;;;;;10.73;3.60;;;;;;;13.31;72.45;64348.97;5034355;28;20279;-61
2023/05/02 06:26:10;;;;;;;3.73;3.33;;;;;;;13.45;72.24;64369.91;5052370;28;20217;-57
2023/05/02 06:28:35;;;;;;;4.97;3.60;;;;;;;13.60;72.06;64385.28;5052546;28;20213;-60
2023/05/02 06:31:03;;;;;;;5.70;3.67;;;;;;;13.68;71.12;64392.09;5052033;28;20205;-57
2023/05/02 06:33:30;;;;;;;3.90;3.03;;;;;;;13.61;70.65;64384.41;5051986;28;20205;-57
2023/05/02 06:35:56;;;;;;;3.43;3.13;;;;;;;13.78;69.98;64402.50;5052056;28;20679;-57
2023/05/02 06:38:22;;;;;;;3.97;3.47;;;;;;;13.89;69.05;64415.16;5051876;28;20209;-56
2023/05/02 06:40:48;;;;;;;3.53;3.00;;;;;;;13.99;68.97;64426.13;5034104;28;20181;-54
2023/05/02 06:43:14;;;;;;;5.82;3.83;;;;;;;14.12;68.63;64439.84;5051743;28;20205;-58
2023/05/02 06:45:40;;;;;;;5.27;3.40;;;;;;;14.21;68.17;64449.75;5051920;28;20215;-59
2023/05/02 06:48:06;;;;;;;4.63;3.47;;;;;;;14.38;66.71;64467.91;5051527;28;20292;-59
2023/05/02 06:50:32;;;;;;;5.37;2.87;;;;;;;14.39;65.48;64469.00;5052052;28;20212;-58
2023/05/02 06:52:58;;;;;;;6.05;2.85;;;;;;;14.39;65.35;64472.09;5051976;28;20206;-57
2023/05/02 06:55:23;;;;;;;2.93;2.40;;;;;;;14.26;65.50;64457.78;5051730;28;20181;-60
2023/05/02 06:57:49;;;;;;;5.63;2.70;;;;;;;14.28;65.26;64458.00;5051770;28;20603;-57
2023/05/02 07:00:18;;;;;;;3.97;2.47;;;;;;;14.45;65.39;64478.69;5051632;28;20189;-58
2023/05/02 07:02:46;;;;;;;3.23;2.60;;;;;;;14.47;63.70;64478.34;5051897;28;20189;-61
2023/05/02 07:05:14;;;;;;;2.92;2.63;;;;;;;14.61;63.73;64493.16;5051535;28;20213;-58
2023/05/02 07:07:40;;;;;;;5.13;2.73;;;;;;;14.78;63.30;64514.41;5051384;28;20280;-57
2023/05/02 07:10:06;;;;;;;4.25;3.13;;;;;;;14.91;61.39;64528.69;5051554;28;20186;-59
2023/05/02 07:12:31;;;;;;;3.25;2.45;;;;;;;14.91;59.80;64524.16;5033845;28;20189;-58
2023/05/02 07:14:56;;;;;;;4.15;2.70;;;;;;;14.98;60.02;64536.94;5051475;28;20210;-61
2023/05/02 07:17:23;;;;;;;3.35;2.33;;;;;;;15.09;59.82;64548.47;5051562;28;20714;-58
2023/05/02 07:19:48;;;;;;;5.40;2.38;;;;;;;15.33;60.05;64572.31;5051632;28;20244;-57
2023/05/02 07:22:15;;;;;;;4.65;2.97;;;;;;;15.46;60.63;64586.09;5051506;28;20630;-57
2023/05/02 07:24:40;;;;;;;3.85;2.80;;;;;;;15.76;59.60;64619.66;5051283;28;20218;-59
2023/05/02 07:27:08;;;;;;;2.92;2.47;;;;;;;15.65;57.52;64604.47;5051750;28;20196;-60
2023/05/02 07:29:34;;;;;;;3.00;2.70;;;;;;;15.59;57.41;64602.94;5051372;28;20237;-58
2023/05/02 07:31:59;;;;;;;3.80;2.70;;;;;;;15.62;57.11;64603.69;5051003;28;20276;-57
2023/05/02 07:34:24;;;;;;;2.75;2.47;;;;;;;15.61;56.71;64605.13;5051179;28;20213;-57
2023/05/02 07:36:50;;;;;;;3.10;2.80;;;;;;;15.77;56.24;64622.75;5051369;28;20202;-58
2023/05/02 07:39:15;;;;;;;6.80;2.88;;;;;;;15.89;55.11;64630.88;5051227;28;20669;-57
2023/05/02 07:41:41;;;;;;;4.20;2.25;;;;;;;16.08;55.28;64651.22;5033395;28;20197;-62
2023/05/02 07:44:07;;;;;;;2.55;2.30;;;;;;;15.98;54.49;64642.75;5050944;28;20201;-58
2023/05/02 07:46:33;;;;;;;5.22;2.40;;;;;;;16.14;55.58;64657.81;5051158;28;20189;-57
2023/05/02 07:48:58;;;;;;;3.15;2.72;;;;;;;16.28;54.76;64676.31;5051003;28;20211;-57
2023/05/02 07:51:25;;;;;;;6.75;3.05;;;;;;;16.45;54.30;64694.47;5051426;28;20681;-58
2023/05/02 07:53:54;;;;;;;3.03;2.40;;;;;;;16.37;53.33;64688.78;5033055;28;20205;-58
2023/05/02 07:56:20;;;;;;;3.97;3.42;;;;;;;16.62;53.46;64711.22;5050875;28;20208;-58
2023/05/02 07:58:46;;;;;;;4.38;2.42;;;;;;;16.63;53.10;64712.34;5050801;28;20676;-61
2023/05/02 08:01:11;;;;;;;2.97;2.67;;;;;;;16.86;52.86;64741.66;5050911;28;20199;-58
2023/05/02 08:03:36;;;;;;;3.65;2.33;;;;;;;16.93;52.03;64747.34;5050756;28;20699;-59
2023/05/02 08:06:02;;;;;;;3.05;2.40;;;;;;;16.94;52.31;64751.00;5050806;28;20305;-57
2023/05/02 08:08:28;;;;;;;3.00;2.67;;;;;;;17.06;52.50;64763.69;5032909;28;20715;-57
2023/05/02 08:10:53;;;;;;;4.10;2.83;;;;;;;17.28;53.65;64783.38;5050776;28;20372;-57
2023/05/02 08:13:18;;;;;;;4.55;2.58;;;;;;;17.57;53.32;64814.81;5050564;28;20304;-59
2023/05/02 08:15:44;;;;;;;3.75;2.58;;;;;;;17.82;51.02;64844.91;5050605;28;20204;-60
2023/05/02 08:18:10;;;;;;;2.63;2.40;;;;;;;17.83;50.37;64842.91;5050658;28;20250;-58
2023/05/02 08:20:35;;;;;;;3.88;2.58;;;;;;;17.95;49.25;64859.25;5050488;28;20571;-58
2023/05/02 08:23:01;;;;;;;3.28;2.45;;;;;;;18.05;49.66;64867.72;5050427;28;20213;-56
2023/05/02 08:25:27;;;;;;;2.80;2.53;;;;;;;18.10;47.84;64873.22;5050520;28;20706;-58
2023/05/02 08:27:52;;;;;;;2.97;2.63;;;;;;;18.24;47.63;64888.66;5050568;28;20273;-57
2023/05/02 08:30:18;;;;;;;4.03;2.40;;;;;;;18.33;48.91;64901.13;5050562;28;20186;-61
2023/05/02 08:32:44;;;;;;;2.92;2.42;;;;;;;18.48;48.81;64914.59;5050868;28;20267;-59
2023/05/02 08:35:10;;;;;;;5.03;2.63;;;;;;;18.70;49.06;64938.88;5050569;28;20170;-61
2023/05/02 08:37:35;;;;;;;2.28;2.03;;;;;;;18.83;48.92;64952.66;5051016;28;20189;-59
2023/05/02 08:40:01;;;;;;;1.95;1.85;;;;;;;19.10;49.03;64985.00;5050383;28;20210;-58
2023/05/02 08:42:28;;;;;;;3.80;2.28;;;;;;;19.22;47.87;64993.13;5050689;28;20284;-56
2023/05/02 08:44:53;;;;;;;3.88;2.25;;;;;;;19.32;46.99;65008.72;5052192;28;20366;-57
2023/05/02 08:47:20;;;;;;;4.57;2.13;;;;;;;19.09;45.71;64983.91;5053905;28;20197;-58
2023/05/02 08:49:47;;;;;;;2.83;2.13;;;;;;;19.13;46.06;64988.31;5053692;28;20201;-58
2023/05/02 08:52:14;;;;;;;3.60;2.25;;;;;;;19.38;46.02;65015.94;5035802;28;20189;-56
2023/05/02 08:54:40;;;;;;;3.72;2.05;;;;;;;19.40;45.50;65017.59;5053817;28;20256;-57
2023/05/02 08:57:06;;;;;;;4.35;2.08;;;;;;;19.19;44.55;64992.38;5053814;28;20197;-56
2023/05/02 08:59:32;;;;;;;3.58;2.22;;;;;;;19.50;44.44;65026.63;5053344;28;20236;-59
2023/05/02 09:02:11;;;;;;;2.15;1.92;;;;;;;19.84;45.10;65066.72;5053997;28;20655;-56
2023/05/02 09:04:40;;;;;;;3.05;2.10;;;;;;;20.03;44.36;65085.16;5035455;28;20220;-58
2023/05/02 09:07:05;;;;;;;2.63;2.42;;;;;;;20.10;45.41;65092.34;5053755;28;20186;-57
2023/05/02 09:09:33;;;;;;;3.78;2.28;;;;;;;20.20;42.76;65103.41;5053374;28;20247;-58
2023/05/02 09:11:58;;;;;;;4.97;2.28;;;;;;;20.45;42.45;65130.47;5053230;28;20250;-56
2023/05/02 09:14:24;;;;;;;2.10;1.90;;;;;;;20.16;41.79;65098.41;5053231;28;20209;-57
2023/05/02 09:16:49;;;;;;;3.38;2.10;;;;;;;20.65;42.08;65155.69;5053819;28;20220;-57
2023/05/02 09:19:25;;;;;;;4.80;1.67;;;;;;;20.63;41.29;65150.38;5035380;28;20288;-59
2023/05/02 09:21:50;;;;;;;3.80;2.03;;;;;;;20.92;40.60;65182.44;5053168;28;20189;-57
2023/05/02 09:24:17;;;;;;;4.13;2.15;;;;;;;20.90;40.66;65180.22;5052936;28;20220;-56
2023/05/02 09:26:55;;;;;;;3.40;2.17;;;;;;;21.17;38.62;65207.50;5053378;28;20205;-58
2023/05/02 09:29:21;;;;;;;5.30;2.05;;;;;;;21.13;40.54;65205.13;5053089;28;20308;-56
2023/05/02 09:31:46;;;;;;;2.10;1.90;;;;;;;21.44;39.02;65241.94;5053380;28;20280;-58
2023/05/02 09:34:15;;;;;;;2.05;1.85;;;;;;;21.94;39.35;65294.72;5035204;28;20645;-61
2023/05/02 09:36:45;;;;;;;3.30;1.92;;;;;;;21.94;36.88;65292.16;5052989;28;20194;-58
2023/05/02 09:39:17;;;;;;;2.97;1.90;;;;;;;22.12;40.14;65314.09;5052936;28;20625;-59
2023/05/02 09:41:45;;;;;;;1.83;1.67;;;;;;;22.47;38.62;65352.84;5053162;28;20197;-59
2023/05/02 09:44:13;;;;;;;2.13;1.80;;;;;;;22.50;37.57;65356.16;5052783;28;20213;-58
2023/05/02 09:46:40;;;;;;;3.17;2.03;;;;;;;22.73;37.43;65379.06;5035022;28;20300;-59
2023/05/02 09:49:06;;;;;;;5.15;2.30;;;;;;;22.74;37.61;65385.34;5052822;28;20691;-56
2023/05/02 09:51:32;;;;;;;7.18;1.98;;;;;;;22.89;38.07;65398.81;5052859;28;20235;-57
2023/05/02 09:53:57;;;;;;;6.10;2.00;;;;;;;23.10;38.10;65420.06;5052896;28;20249;-57
2023/05/02 09:56:23;;;;;;;2.40;2.03;;;;;;;22.97;36.23;65408.22;5051588;28;20543;-58
2023/05/02 09:58:48;;;;;;;4.82;2.15;;;;;;;22.93;35.83;65401.22;5052512;28;20202;-57
2023/05/02 10:01:18;;;;;;;3.60;2.42;;;;;;;23.18;36.72;65430.94;5052777;28;20352;-58
2023/05/02 10:03:47;;;;;;;2.25;1.77;;;;;;;23.37;36.29;65451.44;5034691;28;20201;-56
2023/05/02 10:06:14;;;;;;;3.05;2.20;;;;;;;22.80;35.48;65386.84;5034695;28;20702;-60
2023/05/02 10:08:42;;;;;;;1.65;1.55;;;;;;;23.29;35.03;65441.09;5052617;28;20342;-57
2023/05/02 10:11:08;;;;;;;3.50;1.67;;;;;;;23.19;35.49;65432.06;5052578;28;20550;-59
2023/05/02 10:13:38;;;;;;;3.10;2.08;;;;;;;23.38;34.23;65449.97;5034791;28;20614;-58
2023/05/02 10:16:05;;;;;;;2.45;1.70;;;;;;;23.55;35.41;65471.97;5034579;28;20201;-58
2023/05/02 10:18:51;;;;;;;3.30;1.55;;;;;;;23.65;34.56;65482.47;5052131;28;20213;-59
2023/05/02 10:21:24;;;;;;;3.25;2.25;;;;;;;24.15;35.44;65535.91;5052308;28;20686;-57
2023/05/02 10:23:52;;;;;;;4.10;2.22;;;;;;;24.15;34.61;65537.91;5052194;28;20256;-57
2023/05/02 10:26:20;;;;;;;2.35;2.00;;;;;;;24.26;33.67;65550.09;5034208;28;20694;-57
2023/05/02 10:28:45;;;;;;;5.95;1.90;;;;;;;24.82;33.04;65609.69;5052235;28;20630;-56
2023/05/02 10:31:13;;;;;;;4.85;2.00;;;;;;;24.76;32.72;65605.03;5052143;28;20239;-60
2023/05/02 10:33:39;;;;;;;3.88;2.10;;;;;;;24.76;35.75;65605.59;5052051;28;20217;-58
2023/05/02 10:38:51;;;;;;;3.20;1.95;;;;;;;24.87;32.79;65617.78;5052299;28;20335;-58
2023/05/02 10:41:22;;;;;;;2.83;1.98;;;;;;;24.25;31.70;65549.00;5051979;28;20186;-56
2023/05/02 10:43:48;;;;;;;3.13;1.70;;;;;;;24.29;31.63;65552.88;5052000;28;20280;-56
2023/05/02 10:46:39;;;;;;;2.88;2.03;;;;;;;24.76;32.35;65603.03;5052117;28;20209;-61
2023/05/02 10:49:10;;;;;;;3.38;1.70;;;;;;;25.14;32.32;65644.06;5051966;28;20225;-61
2023/05/02 10:51:40;;;;;;;3.35;2.08;;;;;;;24.94;31.72;65625.56;5052102;28;20270;-56
2023/05/02 10:54:22;;;;;;;4.55;1.95;;;;;;;24.70;31.55;65596.34;5051818;28;20615;-58
2023/05/02 10:57:04;;;;;;;4.63;2.05;;;;;;;24.93;30.74;65621.88;5051884;28;20204;-58
2023/05/02 10:59:34;;;;;;;5.25;1.73;;;;;;;25.34;32.26;65666.25;5051810;28;20296;-57
2023/05/02 11:02:00;;;;;;;2.88;1.70;;;;;;;25.52;32.35;65683.69;5051940;28;20259;-58
2023/05/02 11:04:57;;;;;;;2.03;1.70;;;;;;;25.43;31.24;65679.41;5051698;28;20300;-56
2023/05/02 11:07:23;;;;;;;2.47;1.80;;;;;;;24.86;32.02;65616.13;5050921;28;20232;-62
2023/05/02 11:09:48;;;;;;;2.17;1.75;;;;;;;24.21;31.72;65542.00;5051574;28;20237;-58
2023/05/02 11:12:52;;;;;;;3.28;1.90;;;;;;;23.55;31.61;65471.97;5051352;28;20212;-57
2023/05/02 11:15:26;;;;;;;4.50;1.85;;;;;;;22.75;32.86;65386.44;5051764;28;20682;-57
2023/05/02 11:17:58;;;;;;;2.08;1.88;;;;;;;23.08;34.88;65419.84;5051824;28;20279;-58
2023/05/02 11:20:23;;;;;;;2.05;1.80;;;;;;;23.67;33.00;65482.13;5051490;28;20684;-57
2023/05/02 11:22:49;;;;;;;3.33;1.95;;;;;;;24.15;33.01;65535.34;5051486;28;20186;-61
2023/05/02 11:25:34;;;;;;;4.95;2.22;;;;;;;24.33;33.36;65557.88;5051315;28;20213;-59
2023/05/02 11:28:00;;;;;;;3.10;2.00;;;;;;;24.54;33.42;65578.59;5051274;28;20717;-58
2023/05/02 11:30:43;;;;;;;2.35;2.10;;;;;;;24.56;32.71;65583.41;5033642;28;20261;-57
2023/05/02 11:33:09;;;;;;;2.03;1.67;;;;;;;24.68;33.54;65598.72;5051240;28;20220;-61
2023/05/02 11:35:35;;;;;;;3.80;2.10;;;;;;;24.39;31.84;65564.53;5051121;28;20189;-61
2023/05/02 11:38:09;;;;;;;1.70;1.60;;;;;;;24.46;33.77;65571.75;5042650;22;20217;-58
2023/05/02 11:40:34;;;;;;;4.97;1.77;;;;;;;24.08;33.83;65535.88;5071244;28;20662;-56